createdAt,value
2019-06-07T00:01:23.930Z,17.80
2019-06-07T00:03:54.321Z,17.80
2019-06-07T00:06:25.853Z,17.80
2019-06-07T00:08:56.435Z,17.80
2019-06-07T00:11:26.767Z,17.80
2019-06-07T00:13:57.076Z,17.80
2019-06-07T00:16:27.301Z,17.80
2019-06-07T00:18:57.513Z,17.70
2019-06-07T00:22:13.062Z,17.70
2019-06-07T00:23:59.749Z,17.70
2019-06-07T00:26:29.872Z,17.70
2019-06-07T00:29:00.088Z,17.80
2019-06-07T00:31:30.319Z,17.70
2019-06-07T00:34:00.530Z,17.70
2019-06-07T00:36:31.688Z,17.70
2019-06-07T00:39:03.602Z,17.80
2019-06-07T00:41:34.525Z,17.70
2019-06-07T00:44:05.011Z,17.70
2019-06-07T00:46:35.320Z,17.70
2019-06-07T00:49:05.535Z,17.70
2019-06-07T00:51:49.899Z,17.70
2019-06-07T00:54:07.669Z,17.70
2019-06-07T00:56:37.990Z,17.70
2019-06-07T00:59:11.731Z,17.60
2019-06-07T01:01:40.025Z,17.60
2019-06-07T01:04:10.359Z,17.60
2019-06-07T01:06:40.578Z,17.60
2019-06-07T01:09:10.763Z,17.50
2019-06-07T01:11:40.979Z,17.50
2019-06-07T01:14:11.171Z,17.50
2019-06-07T01:16:56.237Z,17.50
2019-06-07T01:19:13.857Z,17.50
2019-06-07T01:21:44.201Z,17.50
2019-06-07T01:24:15.390Z,17.50
2019-06-07T01:26:45.714Z,17.50
2019-06-07T01:29:17.702Z,17.40
2019-06-07T01:31:47.962Z,17.40
2019-06-07T01:34:18.525Z,17.40
2019-06-07T01:36:49.005Z,17.40
2019-06-07T01:39:24.074Z,17.40
2019-06-07T01:41:53.261Z,17.40
2019-06-07T01:44:26.013Z,17.40
2019-06-07T01:46:55.463Z,17.40
2019-06-07T01:49:29.554Z,17.40
2019-06-07T01:51:59.695Z,17.40
2019-06-07T01:57:01.893Z,17.40
2019-06-07T01:59:32.167Z,17.30
2019-06-07T02:02:02.496Z,17.30
2019-06-07T02:04:33.614Z,17.20
2019-06-07T02:07:04.081Z,17.00
2019-06-07T02:09:34.314Z,17.00
2019-06-07T02:12:23.895Z,16.90
2019-06-07T02:14:36.430Z,16.90
2019-06-07T02:17:06.633Z,16.90
2019-06-07T02:19:36.892Z,16.80
2019-06-07T02:22:29.474Z,16.80
2019-06-07T02:25:34.609Z,16.80
2019-06-07T02:34:16.261Z,16.80
2019-06-07T02:36:46.479Z,16.80
2019-06-07T02:42:48.210Z,16.70
2019-06-07T02:48:50.393Z,16.60
2019-06-07T02:52:09.928Z,16.60
2019-06-07T03:06:06.921Z,16.50
2019-06-07T03:08:39.517Z,16.40
2019-06-07T03:11:15.321Z,16.30
2019-06-07T03:13:48.577Z,16.20
2019-06-07T03:19:48.852Z,16.30
2019-06-07T03:44:37.795Z,16.30
2019-06-07T03:47:05.380Z,16.20
2019-06-07T03:49:42.714Z,16.20
2019-06-07T03:52:13.145Z,16.20
2019-06-07T03:55:18.737Z,16.20
2019-06-07T04:00:47.331Z,16.30
2019-06-07T04:03:33.036Z,16.40
2019-06-07T04:06:09.417Z,16.30
2019-06-07T04:08:42.227Z,16.30
2019-06-07T04:11:51.276Z,16.30
2019-06-07T04:21:40.362Z,16.40
2019-06-07T04:24:08.764Z,16.40
2019-06-07T04:26:43.286Z,16.40
2019-06-07T04:31:43.335Z,16.50
2019-06-07T04:34:13.556Z,16.50
2019-06-07T04:36:58.771Z,16.60
2019-06-07T04:39:18.432Z,16.60
2019-06-07T04:41:50.100Z,16.60
2019-06-07T04:44:21.823Z,16.70
2019-06-07T04:46:56.910Z,16.70
2019-06-07T04:49:27.079Z,16.80
2019-06-07T04:51:57.902Z,16.90
2019-06-07T04:54:30.925Z,16.90
2019-06-07T04:56:59.922Z,17.00
2019-06-07T05:00:04.135Z,17.00
2019-06-07T05:02:02.112Z,17.00
2019-06-07T05:04:33.151Z,17.10
2019-06-07T05:07:07.276Z,17.10
2019-06-07T05:09:39.410Z,17.20
2019-06-07T05:12:09.285Z,17.30
2019-06-07T05:14:42.380Z,17.40
2019-06-07T05:17:11.369Z,17.50
2019-06-07T05:19:44.202Z,17.60
2019-06-07T05:22:14.698Z,17.60
2019-06-07T05:24:44.916Z,17.70
2019-06-07T05:27:15.112Z,17.70
2019-06-07T05:30:08.793Z,17.80
2019-06-07T05:32:19.711Z,17.80
2019-06-07T05:34:49.853Z,17.90
2019-06-07T05:37:20.151Z,18.00
2019-06-07T05:39:50.515Z,18.10
2019-06-07T05:42:20.891Z,18.10
2019-06-07T05:44:51.081Z,18.20
2019-06-07T05:47:21.370Z,18.30
2019-06-07T05:49:51.575Z,18.30
2019-06-07T05:52:21.856Z,18.40
2019-06-07T05:54:52.037Z,18.50
2019-06-07T05:57:22.388Z,18.50
2019-06-07T05:59:52.714Z,18.60
2019-06-07T06:02:24.857Z,18.70
2019-06-07T06:04:55.064Z,18.70
2019-06-07T06:07:25.659Z,18.80
2019-06-07T06:09:57.400Z,18.80
2019-06-07T06:12:35.531Z,18.90
2019-06-07T06:14:59.610Z,19.00
2019-06-07T06:17:30.300Z,19.00
2019-06-07T06:20:00.810Z,19.00
2019-06-07T06:22:31.418Z,19.10
2019-06-07T06:25:30.982Z,19.10
2019-06-07T06:30:06.806Z,19.20
2019-06-07T06:32:44.031Z,19.30
2019-06-07T06:35:08.997Z,19.30
2019-06-07T06:37:42.578Z,19.40
2019-06-07T06:40:26.462Z,19.50
2019-06-07T06:42:56.851Z,19.50
2019-06-07T06:45:27.270Z,19.60
2019-06-07T06:47:57.631Z,19.70
2019-06-07T06:50:28.025Z,19.70
2019-06-07T06:52:58.405Z,19.80
2019-06-07T06:55:28.733Z,19.80
2019-06-07T06:58:00.083Z,19.90
2019-06-07T07:00:56.981Z,20.00
2019-06-07T07:03:54.154Z,20.10
2019-06-07T07:05:54.683Z,20.20
2019-06-07T07:08:24.189Z,20.20
2019-06-07T07:10:55.071Z,20.30
2019-06-07T07:13:25.839Z,20.30
2019-06-07T07:15:58.448Z,20.40
2019-06-07T07:18:31.012Z,20.50
2019-06-07T07:21:01.301Z,20.50
2019-06-07T07:23:33.053Z,20.50
2019-06-07T07:26:03.273Z,20.60
2019-06-07T07:28:33.570Z,20.70
2019-06-07T07:31:03.836Z,20.80
2019-06-07T07:34:20.649Z,20.80
2019-06-07T07:36:28.153Z,20.90
2019-06-07T07:38:39.099Z,20.90
2019-06-07T07:41:15.443Z,21.00
2019-06-07T07:43:49.233Z,21.10
2019-06-07T07:46:30.532Z,21.20
2019-06-07T07:48:48.529Z,21.20
2019-06-07T07:51:18.980Z,21.30
2019-06-07T07:54:01.448Z,21.40
2019-06-07T07:56:22.023Z,21.40
2019-06-07T07:58:57.928Z,21.50
2019-06-07T08:01:24.090Z,21.50
2019-06-07T08:03:56.123Z,21.60
2019-06-07T08:06:26.283Z,21.70
2019-06-07T08:08:57.146Z,21.70
2019-06-07T08:11:27.540Z,21.80
2019-06-07T15:45:54.293Z,25.90
2019-06-07T15:48:25.013Z,25.70
2019-06-07T15:50:55.222Z,26.10
2019-06-07T15:53:25.567Z,26.60
2019-06-07T15:55:56.880Z,27.10
2019-06-07T15:58:27.146Z,27.60
2019-06-07T16:00:57.433Z,28.10
2019-06-07T16:03:27.610Z,28.40
2019-06-07T16:05:58.003Z,28.70
2019-06-07T16:08:28.290Z,28.90
2019-06-07T16:10:58.521Z,28.90
2019-06-07T16:13:28.769Z,29.00
2019-06-07T16:15:58.987Z,29.20
2019-06-07T16:18:29.185Z,29.20
2019-06-07T16:20:59.579Z,29.20
2019-06-07T16:23:29.764Z,29.30
2019-06-07T16:26:01.097Z,29.40
2019-06-07T16:28:31.600Z,29.40
2019-06-07T16:31:02.013Z,29.40
2019-06-07T16:33:32.309Z,29.50
2019-06-07T16:36:02.680Z,29.50
2019-06-07T16:38:32.983Z,29.40
2019-06-07T16:45:26.640Z,29.30
2019-06-07T16:47:56.882Z,29.20
2019-06-07T16:50:29.153Z,29.10
2019-06-07T16:52:59.361Z,29.00
2019-06-07T16:55:29.630Z,28.90
2019-06-07T16:57:59.946Z,28.80
2019-06-07T17:00:30.225Z,28.70
2019-06-07T17:03:00.495Z,28.70
2019-06-07T17:05:30.688Z,28.60
2019-06-07T17:08:00.898Z,28.50
2019-06-07T17:10:32.412Z,28.50
2019-06-07T17:13:02.611Z,28.40
2019-06-07T17:15:32.966Z,28.40
2019-06-07T17:18:04.370Z,28.30
2019-06-07T17:20:34.654Z,28.20
2019-06-07T17:23:08.559Z,28.10
2019-06-07T17:25:39.464Z,28.10
2019-06-07T17:28:10.822Z,28.10
2019-06-07T17:30:41.775Z,28.00
2019-06-07T17:33:12.234Z,27.90
2019-06-07T17:35:44.642Z,28.00
2019-06-07T17:38:16.145Z,27.90
2019-06-07T17:40:47.111Z,27.80
2019-06-07T17:43:17.625Z,27.80
2019-06-07T17:45:49.422Z,27.80
2019-06-07T17:48:19.726Z,27.70
2019-06-07T17:50:50.219Z,27.70
2019-06-07T17:53:20.499Z,27.60
2019-06-07T17:55:54.324Z,27.50
2019-06-07T17:58:24.596Z,27.50
2019-06-07T18:00:55.015Z,27.40
2019-06-07T18:03:25.787Z,27.40
2019-06-07T18:33:03.477Z,26.30
2019-06-07T18:35:33.780Z,26.20
2019-06-07T18:38:04.184Z,26.20
2019-06-07T18:40:34.336Z,26.20
2019-06-07T18:43:04.927Z,26.20
2019-06-07T18:45:35.184Z,26.10
2019-06-07T18:48:05.995Z,26.10
2019-06-07T18:50:36.611Z,26.10
2019-06-07T18:53:07.287Z,26.10
2019-06-07T18:55:38.048Z,26.00
2019-06-07T18:58:10.913Z,26.00
2019-06-07T19:00:40.753Z,25.90
2019-06-07T19:03:12.768Z,25.80
2019-06-07T19:05:43.024Z,25.80
2019-06-07T19:08:13.662Z,25.70
2019-06-07T19:10:44.635Z,25.70
2019-06-07T19:13:15.925Z,25.60
2019-06-07T19:15:46.794Z,25.60
2019-06-07T19:18:18.732Z,25.50
2019-06-07T19:20:50.765Z,25.50
2019-06-07T19:23:22.325Z,25.50
2019-06-07T19:25:54.270Z,25.40
2019-06-07T19:28:24.794Z,25.30
2019-06-07T19:30:57.160Z,25.20
2019-06-07T19:33:29.214Z,25.20
2019-06-07T19:36:02.058Z,25.10
2019-06-07T19:38:33.588Z,25.00
2019-06-07T19:41:18.931Z,25.00
2019-06-07T19:43:38.416Z,24.90
2019-06-07T19:46:11.207Z,24.90
2019-06-07T19:48:42.867Z,24.80
2019-06-07T19:51:20.430Z,24.80
2019-06-07T19:53:52.861Z,24.70
2019-06-07T19:56:27.080Z,24.70
2019-06-07T19:58:59.639Z,24.60
2019-06-07T20:01:31.796Z,24.50
2019-06-07T20:04:17.422Z,24.50
2019-06-07T20:09:48.231Z,24.40
2019-06-07T20:12:20.264Z,24.30
2019-06-07T20:14:53.891Z,24.20
2019-06-07T20:17:25.536Z,24.20
2019-06-07T20:19:58.275Z,24.10
2019-06-07T20:22:29.848Z,24.00
2019-06-07T20:25:03.080Z,24.00
2019-06-07T20:27:34.689Z,23.90
2019-06-07T20:30:12.146Z,23.90
2019-06-07T20:32:44.047Z,23.90
2019-06-07T20:35:16.395Z,23.90
2019-06-07T20:37:48.407Z,23.70
2019-06-07T20:40:24.627Z,23.70
2019-06-07T20:42:52.486Z,23.60
2019-06-07T20:45:33.088Z,23.50
2019-06-07T20:47:54.632Z,23.50
2019-06-07T20:50:25.004Z,23.40
2019-06-07T20:52:55.202Z,23.30
2019-06-07T20:55:25.501Z,23.30
2019-06-07T20:57:56.100Z,23.20
2019-06-07T21:00:26.568Z,23.20
2019-06-07T21:02:58.990Z,23.10
2019-06-07T21:05:30.467Z,23.10
2019-06-07T21:08:03.779Z,23.00
2019-06-07T21:10:38.093Z,22.90
2019-06-07T21:13:10.236Z,22.90
2019-06-07T21:15:48.778Z,22.80
2019-06-07T21:18:19.374Z,22.70
2019-06-07T21:20:44.976Z,22.60
2019-06-07T21:23:15.310Z,22.40
2019-06-07T21:25:45.540Z,22.40
2019-06-07T21:28:15.915Z,22.30
2019-06-07T21:30:46.146Z,22.30
2019-06-07T21:33:16.678Z,22.20
2019-06-07T21:35:46.969Z,22.10
2019-06-07T21:38:17.248Z,22.10
2019-06-07T21:40:47.511Z,22.00
2019-06-07T21:43:17.732Z,21.90
2019-06-07T21:46:01.558Z,21.80
2019-06-07T21:48:19.920Z,21.80
2019-06-07T21:50:50.260Z,21.70
2019-06-07T21:53:20.711Z,21.70
2019-06-07T21:55:50.930Z,21.70
2019-06-07T21:58:21.756Z,21.60
2019-06-07T22:00:54.927Z,21.50
2019-06-07T22:03:27.137Z,21.50
2019-06-07T22:05:57.346Z,21.50
2019-06-07T22:08:27.596Z,21.50
2019-06-07T22:10:58.088Z,21.40
2019-06-07T22:13:28.304Z,21.40
2019-06-07T22:15:58.547Z,21.40
2019-06-07T22:18:28.750Z,21.30
2019-06-07T22:20:59.012Z,21.30
2019-06-07T22:23:30.279Z,21.30
2019-06-07T22:26:00.736Z,21.30
2019-06-07T22:28:32.898Z,21.20
2019-06-07T22:31:03.040Z,21.20
2019-06-07T22:33:33.254Z,21.10
2019-06-07T22:36:03.441Z,21.10
2019-06-07T22:38:33.781Z,21.10
2019-06-07T22:41:03.973Z,21.10
2019-06-07T22:43:34.235Z,21.00
2019-06-07T22:46:04.634Z,20.90
2019-06-07T22:48:35.085Z,20.90
2019-06-07T22:51:08.835Z,20.80
2019-06-07T22:53:43.874Z,20.70
2019-06-07T22:56:16.082Z,20.70
2019-06-07T22:58:47.416Z,20.60
2019-06-07T23:01:20.292Z,20.60
2019-06-07T23:03:50.636Z,20.50
2019-06-07T23:06:20.912Z,20.50
2019-06-07T23:08:51.209Z,20.50
2019-06-07T23:11:21.422Z,20.50
2019-06-07T23:13:51.640Z,20.50
2019-06-07T23:16:21.931Z,20.50
2019-06-07T23:18:52.245Z,20.40
2019-06-07T23:21:22.469Z,20.40
2019-06-07T23:23:52.719Z,20.30
2019-06-07T23:26:22.939Z,20.30
2019-06-07T23:28:54.421Z,20.30
2019-06-07T23:31:24.626Z,20.20
2019-06-07T23:33:57.848Z,20.20
2019-06-07T23:36:28.040Z,20.20
2019-06-07T23:38:58.299Z,20.10
2019-06-07T23:41:33.264Z,20.00
2019-06-07T23:44:03.435Z,19.90
2019-06-07T23:46:33.625Z,19.80
2019-06-07T23:49:03.812Z,19.80
2019-06-07T23:51:36.129Z,19.80
2019-06-07T23:54:05.482Z,19.80
2019-06-07T23:56:35.579Z,19.80
2019-06-07T23:59:05.808Z,19.70
